sensor_id;sensor_type;location;lat;lon;timestamp;temperature;humidity
20366;DHT22;10341;49.894;8.822;2024-03-25T00:00:40;7.60;99.90
20366;DHT22;10341;49.894;8.822;2024-03-25T00:05:59;7.50;99.90
20366;DHT22;10341;49.894;8.822;2024-03-25T00:11:18;7.50;99.90
20366;DHT22;10341;49.894;8.822;2024-03-25T00:16:37;7.50;99.90
20366;DHT22;10341;49.894;8.822;2024-03-25T00:21:56;7.40;99.90
20366;DHT22;10341;49.894;8.822;2024-03-25T00:27:16;7.40;99.90
20366;DHT22;10341;49.894;8.822;2024-03-25T00:32:36;7.40;99.90
20366;DHT22;10341;49.894;8.822;2024-03-25T00:37:54;7.40;99.90
20366;DHT22;10341;49.894;8.822;2024-03-25T00:43:14;7.30;99.90
20366;DHT22;10341;49.894;8.822;2024-03-25T00:48:33;7.40;99.90
20366;DHT22;10341;49.894;8.822;2024-03-25T00:53:52;7.30;99.90
20366;DHT22;10341;49.894;8.822;2024-03-25T00:59:11;7.30;99.90
20366;DHT22;10341;49.894;8.822;2024-03-25T01:04:30;7.30;99.90
20366;DHT22;10341;49.894;8.822;2024-03-25T01:09:49;7.30;99.90
20366;DHT22;10341;49.894;8.822;2024-03-25T01:15:09;7.20;99.90
20366;DHT22;10341;49.894;8.822;2024-03-25T01:20:31;7.20;99.90
20366;DHT22;10341;49.894;8.822;2024-03-25T01:25:51;7.10;99.90
20366;DHT22;10341;49.894;8.822;2024-03-25T01:31:10;7.00;99.90
20366;DHT22;10341;49.894;8.822;2024-03-25T01:36:29;6.90;99.90
20366;DHT22;10341;49.894;8.822;2024-03-25T01:41:49;6.90;99.90
20366;DHT22;10341;49.894;8.822;2024-03-25T01:47:08;7.00;99.90
20366;DHT22;10341;49.894;8.822;2024-03-25T01:52:27;6.90;99.90
20366;DHT22;10341;49.894;8.822;2024-03-25T01:57:47;6.90;99.90
20366;DHT22;10341;49.894;8.822;2024-03-25T02:03:07;6.90;99.90
20366;DHT22;10341;49.894;8.822;2024-03-25T02:08:27;6.80;99.90
20366;DHT22;10341;49.894;8.822;2024-03-25T02:13:46;6.80;99.90
20366;DHT22;10341;49.894;8.822;2024-03-25T02:19:07;6.70;99.90
20366;DHT22;10341;49.894;8.822;2024-03-25T02:24:28;6.70;99.90
20366;DHT22;10341;49.894;8.822;2024-03-25T02:29:48;6.60;99.90
20366;DHT22;10341;49.894;8.822;2024-03-25T02:35:11;6.60;99.90
20366;DHT22;10341;49.894;8.822;2024-03-25T02:40:30;6.40;99.90
20366;DHT22;10341;49.894;8.822;2024-03-25T02:45:50;6.30;99.90
20366;DHT22;10341;49.894;8.822;2024-03-25T02:51:09;6.20;99.90
20366;DHT22;10341;49.894;8.822;2024-03-25T02:56:28;6.10;99.90
20366;DHT22;10341;49.894;8.822;2024-03-25T03:01:47;6.00;99.90
20366;DHT22;10341;49.894;8.822;2024-03-25T03:07:06;5.90;99.90
20366;DHT22;10341;49.894;8.822;2024-03-25T03:12:26;5.90;99.90
20366;DHT22;10341;49.894;8.822;2024-03-25T03:17:45;5.90;99.90
20366;DHT22;10341;49.894;8.822;2024-03-25T03:23:04;5.90;99.90
20366;DHT22;10341;49.894;8.822;2024-03-25T03:28:23;5.90;99.90
20366;DHT22;10341;49.894;8.822;2024-03-25T03:33:43;5.90;99.90
20366;DHT22;10341;49.894;8.822;2024-03-25T03:39:02;6.00;99.90
20366;DHT22;10341;49.894;8.822;2024-03-25T03:44:22;6.10;99.90
20366;DHT22;10341;49.894;8.822;2024-03-25T03:49:41;6.10;99.90
20366;DHT22;10341;49.894;8.822;2024-03-25T03:55:01;6.10;99.90
20366;DHT22;10341;49.894;8.822;2024-03-25T04:00:20;6.00;99.90
20366;DHT22;10341;49.894;8.822;2024-03-25T04:05:39;6.10;99.90
20366;DHT22;10341;49.894;8.822;2024-03-25T04:11:01;6.00;99.90
20366;DHT22;10341;49.894;8.822;2024-03-25T04:16:21;5.90;99.90
20366;DHT22;10341;49.894;8.822;2024-03-25T04:21:42;5.90;99.90
20366;DHT22;10341;49.894;8.822;2024-03-25T04:27:02;5.90;99.90
20366;DHT22;10341;49.894;8.822;2024-03-25T04:32:21;5.90;99.90
20366;DHT22;10341;49.894;8.822;2024-03-25T04:37:40;5.90;99.90
20366;DHT22;10341;49.894;8.822;2024-03-25T04:43:00;5.90;99.90
20366;DHT22;10341;49.894;8.822;2024-03-25T04:48:21;5.80;99.90
20366;DHT22;10341;49.894;8.822;2024-03-25T04:53:40;5.80;99.90
20366;DHT22;10341;49.894;8.822;2024-03-25T04:59:00;5.70;99.90
20366;DHT22;10341;49.894;8.822;2024-03-25T05:04:22;5.70;99.90
20366;DHT22;10341;49.894;8.822;2024-03-25T05:09:42;5.60;99.90
20366;DHT22;10341;49.894;8.822;2024-03-25T05:15:02;5.50;99.90
20366;DHT22;10341;49.894;8.822;2024-03-25T05:20:22;5.30;99.90
20366;DHT22;10341;49.894;8.822;2024-03-25T05:25:41;5.10;99.90
20366;DHT22;10341;49.894;8.822;2024-03-25T05:31:07;4.90;99.90
20366;DHT22;10341;49.894;8.822;2024-03-25T05:36:27;4.80;99.90
20366;DHT22;10341;49.894;8.822;2024-03-25T05:41:47;4.60;99.90
20366;DHT22;10341;49.894;8.822;2024-03-25T05:47:06;4.50;99.90
20366;DHT22;10341;49.894;8.822;2024-03-25T05:52:28;4.50;99.90
20366;DHT22;10341;49.894;8.822;2024-03-25T05:57:47;4.40;99.90
20366;DHT22;10341;49.894;8.822;2024-03-25T06:03:06;4.50;99.90
20366;DHT22;10341;49.894;8.822;2024-03-25T06:08:26;4.70;99.90
20366;DHT22;10341;49.894;8.822;2024-03-25T06:13:46;4.80;99.90
20366;DHT22;10341;49.894;8.822;2024-03-25T06:19:06;4.90;99.90
20366;DHT22;10341;49.894;8.822;2024-03-25T06:24:26;5.00;99.90
20366;DHT22;10341;49.894;8.822;2024-03-25T06:29:45;5.10;99.90
20366;DHT22;10341;49.894;8.822;2024-03-25T06:35:05;5.30;99.90
20366;DHT22;10341;49.894;8.822;2024-03-25T06:40:25;5.40;99.90
20366;DHT22;10341;49.894;8.822;2024-03-25T06:45:44;5.50;99.90
20366;DHT22;10341;49.894;8.822;2024-03-25T06:51:03;5.80;99.90
20366;DHT22;10341;49.894;8.822;2024-03-25T06:56:23;6.40;99.90
20366;DHT22;10341;49.894;8.822;2024-03-25T07:01:42;6.90;99.90
20366;DHT22;10341;49.894;8.822;2024-03-25T07:07:02;7.80;99.90
20366;DHT22;10341;49.894;8.822;2024-03-25T07:12:23;8.70;99.90
20366;DHT22;10341;49.894;8.822;2024-03-25T07:17:42;8.90;99.90
20366;DHT22;10341;49.894;8.822;2024-03-25T07:23:03;9.50;99.90
20366;DHT22;10341;49.894;8.822;2024-03-25T07:28:22;10.20;99.90
20366;DHT22;10341;49.894;8.822;2024-03-25T07:33:42;10.40;99.90
20366;DHT22;10341;49.894;8.822;2024-03-25T07:39:01;10.50;99.90
20366;DHT22;10341;49.894;8.822;2024-03-25T07:44:20;10.90;99.90
20366;DHT22;10341;49.894;8.822;2024-03-25T07:49:40;11.90;99.90
20366;DHT22;10341;49.894;8.822;2024-03-25T07:55:01;11.30;99.90
20366;DHT22;10341;49.894;8.822;2024-03-25T08:00:20;11.50;99.90
20366;DHT22;10341;49.894;8.822;2024-03-25T08:05:40;11.60;99.90
20366;DHT22;10341;49.894;8.822;2024-03-25T08:10:59;12.10;99.90
20366;DHT22;10341;49.894;8.822;2024-03-25T08:16:18;12.30;99.90
20366;DHT22;10341;49.894;8.822;2024-03-25T08:21:39;12.10;99.90
20366;DHT22;10341;49.894;8.822;2024-03-25T08:26:58;12.90;99.90
20366;DHT22;10341;49.894;8.822;2024-03-25T08:32:18;14.10;99.90
20366;DHT22;10341;49.894;8.822;2024-03-25T08:37:38;15.10;99.90
20366;DHT22;10341;49.894;8.822;2024-03-25T08:42:56;15.60;97.80
20366;DHT22;10341;49.894;8.822;2024-03-25T08:48:16;16.90;96.40
20366;DHT22;10341;49.894;8.822;2024-03-25T08:53:36;17.20;93.00
20366;DHT22;10341;49.894;8.822;2024-03-25T08:58:55;17.90;91.70
20366;DHT22;10341;49.894;8.822;2024-03-25T09:04:16;19.40;88.30
20366;DHT22;10341;49.894;8.822;2024-03-25T09:09:35;19.20;90.40
20366;DHT22;10341;49.894;8.822;2024-03-25T09:15:13;19.60;87.30
20366;DHT22;10341;49.894;8.822;2024-03-25T09:20:33;19.80;85.60
20366;DHT22;10341;49.894;8.822;2024-03-25T09:25:53;20.00;83.30
20366;DHT22;10341;49.894;8.822;2024-03-25T09:31:13;20.10;82.00
20366;DHT22;10341;49.894;8.822;2024-03-25T09:36:32;20.00;83.00
20366;DHT22;10341;49.894;8.822;2024-03-25T09:41:55;19.70;81.20
20366;DHT22;10341;49.894;8.822;2024-03-25T09:47:14;20.10;81.90
20366;DHT22;10341;49.894;8.822;2024-03-25T09:52:35;20.70;79.90
20366;DHT22;10341;49.894;8.822;2024-03-25T09:57:54;21.80;78.20
20366;DHT22;10341;49.894;8.822;2024-03-25T10:03:13;22.40;75.40
20366;DHT22;10341;49.894;8.822;2024-03-25T10:08:33;22.10;75.40
20366;DHT22;10341;49.894;8.822;2024-03-25T10:13:52;21.90;70.00
20366;DHT22;10341;49.894;8.822;2024-03-25T10:19:12;21.20;70.40
20366;DHT22;10341;49.894;8.822;2024-03-25T10:24:42;20.80;72.40
20366;DHT22;10341;49.894;8.822;2024-03-25T10:30:01;20.80;70.80
20366;DHT22;10341;49.894;8.822;2024-03-25T10:35:21;19.70;72.50
20366;DHT22;10341;49.894;8.822;2024-03-25T10:40:41;19.70;77.20
20366;DHT22;10341;49.894;8.822;2024-03-25T10:46:00;20.60;75.00
20366;DHT22;10341;49.894;8.822;2024-03-25T10:51:21;21.60;68.90
20366;DHT22;10341;49.894;8.822;2024-03-25T10:56:41;22.20;67.30
20366;DHT22;10341;49.894;8.822;2024-03-25T11:02:00;22.20;63.90
20366;DHT22;10341;49.894;8.822;2024-03-25T11:07:30;21.70;66.80
20366;DHT22;10341;49.894;8.822;2024-03-25T11:12:50;19.30;69.80
20366;DHT22;10341;49.894;8.822;2024-03-25T11:18:13;19.80;69.40
20366;DHT22;10341;49.894;8.822;2024-03-25T11:23:41;20.80;67.50
20366;DHT22;10341;49.894;8.822;2024-03-25T11:29:01;20.70;65.40
20366;DHT22;10341;49.894;8.822;2024-03-25T11:34:20;19.10;69.20
20366;DHT22;10341;49.894;8.822;2024-03-25T11:39:39;20.30;68.20
20366;DHT22;10341;49.894;8.822;2024-03-25T11:45:00;21.50;66.70
20366;DHT22;10341;49.894;8.822;2024-03-25T11:50:20;21.00;68.90
20366;DHT22;10341;49.894;8.822;2024-03-25T11:55:40;20.70;67.50
20366;DHT22;10341;49.894;8.822;2024-03-25T12:01:00;19.60;67.40
20366;DHT22;10341;49.894;8.822;2024-03-25T12:06:20;21.00;65.60
20366;DHT22;10341;49.894;8.822;2024-03-25T12:11:39;21.60;62.90
20366;DHT22;10341;49.894;8.822;2024-03-25T12:17:00;20.60;64.20
20366;DHT22;10341;49.894;8.822;2024-03-25T12:22:20;21.30;63.50
20366;DHT22;10341;49.894;8.822;2024-03-25T12:27:39;22.70;62.60
20366;DHT22;10341;49.894;8.822;2024-03-25T12:33:01;22.90;62.60
20366;DHT22;10341;49.894;8.822;2024-03-25T12:38:29;23.40;58.70
20366;DHT22;10341;49.894;8.822;2024-03-25T12:43:50;21.20;62.30
20366;DHT22;10341;49.894;8.822;2024-03-25T12:49:10;19.60;64.30
20366;DHT22;10341;49.894;8.822;2024-03-25T12:54:30;19.80;64.10
20366;DHT22;10341;49.894;8.822;2024-03-25T12:59:49;18.20;67.00
20366;DHT22;10341;49.894;8.822;2024-03-25T13:05:09;18.80;66.70
20366;DHT22;10341;49.894;8.822;2024-03-25T13:10:29;19.90;64.50
20366;DHT22;10341;49.894;8.822;2024-03-25T13:15:48;19.00;67.10
20366;DHT22;10341;49.894;8.822;2024-03-25T13:21:08;17.70;64.70
20366;DHT22;10341;49.894;8.822;2024-03-25T13:26:27;18.30;65.60
20366;DHT22;10341;49.894;8.822;2024-03-25T13:31:47;17.00;67.50
20366;DHT22;10341;49.894;8.822;2024-03-25T13:37:06;17.50;67.70
20366;DHT22;10341;49.894;8.822;2024-03-25T13:42:26;18.80;66.90
20366;DHT22;10341;49.894;8.822;2024-03-25T13:47:45;19.50;63.50
20366;DHT22;10341;49.894;8.822;2024-03-25T13:53:04;19.80;64.40
20366;DHT22;10341;49.894;8.822;2024-03-25T13:58:24;21.90;59.90
20366;DHT22;10341;49.894;8.822;2024-03-25T14:03:43;20.20;59.60
20366;DHT22;10341;49.894;8.822;2024-03-25T14:09:03;20.40;58.00
20366;DHT22;10341;49.894;8.822;2024-03-25T14:14:29;21.20;57.00
20366;DHT22;10341;49.894;8.822;2024-03-25T14:19:48;21.90;57.80
20366;DHT22;10341;49.894;8.822;2024-03-25T14:25:08;22.90;56.10
20366;DHT22;10341;49.894;8.822;2024-03-25T14:30:27;23.70;57.00
20366;DHT22;10341;49.894;8.822;2024-03-25T14:35:47;24.80;55.40
20366;DHT22;10341;49.894;8.822;2024-03-25T14:41:10;23.90;54.60
20366;DHT22;10341;49.894;8.822;2024-03-25T14:46:30;21.90;56.40
20366;DHT22;10341;49.894;8.822;2024-03-25T14:51:49;23.30;56.40
20366;DHT22;10341;49.894;8.822;2024-03-25T14:57:09;22.10;55.80
20366;DHT22;10341;49.894;8.822;2024-03-25T15:02:28;20.90;57.60
20366;DHT22;10341;49.894;8.822;2024-03-25T15:07:47;20.60;58.60
20366;DHT22;10341;49.894;8.822;2024-03-25T15:13:07;21.30;58.60
20366;DHT22;10341;49.894;8.822;2024-03-25T15:18:26;22.50;57.80
20366;DHT22;10341;49.894;8.822;2024-03-25T15:23:46;23.40;55.20
20366;DHT22;10341;49.894;8.822;2024-03-25T15:29:05;22.80;55.70
20366;DHT22;10341;49.894;8.822;2024-03-25T15:34:24;22.70;54.30
20366;DHT22;10341;49.894;8.822;2024-03-25T15:39:43;22.80;55.00
20366;DHT22;10341;49.894;8.822;2024-03-25T15:45:04;23.20;55.50
20366;DHT22;10341;49.894;8.822;2024-03-25T15:50:23;22.20;56.30
20366;DHT22;10341;49.894;8.822;2024-03-25T15:55:43;22.20;55.90
20366;DHT22;10341;49.894;8.822;2024-03-25T16:01:03;21.70;57.30
20366;DHT22;10341;49.894;8.822;2024-03-25T16:06:23;21.70;55.70
20366;DHT22;10341;49.894;8.822;2024-03-25T16:11:42;20.10;59.20
20366;DHT22;10341;49.894;8.822;2024-03-25T16:17:01;20.80;57.80
20366;DHT22;10341;49.894;8.822;2024-03-25T16:22:20;19.60;59.40
20366;DHT22;10341;49.894;8.822;2024-03-25T16:27:40;19.50;60.00
20366;DHT22;10341;49.894;8.822;2024-03-25T16:32:59;18.80;59.20
20366;DHT22;10341;49.894;8.822;2024-03-25T16:38:18;17.10;64.70
20366;DHT22;10341;49.894;8.822;2024-03-25T16:43:37;15.60;68.30
20366;DHT22;10341;49.894;8.822;2024-03-25T16:48:57;15.10;66.70
20366;DHT22;10341;49.894;8.822;2024-03-25T16:54:17;14.40;69.40
20366;DHT22;10341;49.894;8.822;2024-03-25T16:59:36;13.90;73.20
20366;DHT22;10341;49.894;8.822;2024-03-25T17:04:56;12.90;76.50
20366;DHT22;10341;49.894;8.822;2024-03-25T17:10:15;12.70;77.20
20366;DHT22;10341;49.894;8.822;2024-03-25T17:15:35;12.70;78.10
20366;DHT22;10341;49.894;8.822;2024-03-25T17:21:00;12.20;80.10
20366;DHT22;10341;49.894;8.822;2024-03-25T17:26:20;11.70;82.20
20366;DHT22;10341;49.894;8.822;2024-03-25T17:31:40;11.40;83.10
20366;DHT22;10341;49.894;8.822;2024-03-25T17:36:59;11.00;85.60
20366;DHT22;10341;49.894;8.822;2024-03-25T17:42:18;10.60;87.80
20366;DHT22;10341;49.894;8.822;2024-03-25T17:47:37;10.60;90.20
20366;DHT22;10341;49.894;8.822;2024-03-25T17:52:56;10.30;91.10
20366;DHT22;10341;49.894;8.822;2024-03-25T17:58:15;10.10;91.50
20366;DHT22;10341;49.894;8.822;2024-03-25T18:03:35;10.00;92.10
20366;DHT22;10341;49.894;8.822;2024-03-25T18:08:54;9.80;91.90
20366;DHT22;10341;49.894;8.822;2024-03-25T18:14:13;9.70;91.90
20366;DHT22;10341;49.894;8.822;2024-03-25T18:19:32;9.50;92.50
20366;DHT22;10341;49.894;8.822;2024-03-25T18:24:51;9.50;92.20
20366;DHT22;10341;49.894;8.822;2024-03-25T18:30:12;9.40;92.40
20366;DHT22;10341;49.894;8.822;2024-03-25T18:35:38;9.30;92.60
20366;DHT22;10341;49.894;8.822;2024-03-25T18:41:01;9.10;93.10
20366;DHT22;10341;49.894;8.822;2024-03-25T18:46:21;8.90;93.90
20366;DHT22;10341;49.894;8.822;2024-03-25T18:51:40;8.80;94.20
20366;DHT22;10341;49.894;8.822;2024-03-25T18:56:59;8.60;94.30
20366;DHT22;10341;49.894;8.822;2024-03-25T19:02:18;8.60;94.60
20366;DHT22;10341;49.894;8.822;2024-03-25T19:07:38;8.50;95.10
20366;DHT22;10341;49.894;8.822;2024-03-25T19:12:59;8.30;95.60
20366;DHT22;10341;49.894;8.822;2024-03-25T19:18:19;8.40;95.60
20366;DHT22;10341;49.894;8.822;2024-03-25T19:23:39;8.10;96.30
20366;DHT22;10341;49.894;8.822;2024-03-25T19:28:58;8.10;96.80
20366;DHT22;10341;49.894;8.822;2024-03-25T19:34:18;7.90;97.40
20366;DHT22;10341;49.894;8.822;2024-03-25T19:39:37;7.80;98.40
20366;DHT22;10341;49.894;8.822;2024-03-25T19:44:58;7.70;98.70
20366;DHT22;10341;49.894;8.822;2024-03-25T19:50:18;7.60;99.30
20366;DHT22;10341;49.894;8.822;2024-03-25T19:55:38;7.50;99.50
20366;DHT22;10341;49.894;8.822;2024-03-25T20:00:57;7.40;99.70
20366;DHT22;10341;49.894;8.822;2024-03-25T20:06:24;7.40;99.90
20366;DHT22;10341;49.894;8.822;2024-03-25T20:11:43;7.20;99.90
20366;DHT22;10341;49.894;8.822;2024-03-25T20:17:02;7.10;99.90
20366;DHT22;10341;49.894;8.822;2024-03-25T20:22:22;7.00;99.90
20366;DHT22;10341;49.894;8.822;2024-03-25T20:27:41;6.90;99.90
20366;DHT22;10341;49.894;8.822;2024-03-25T20:33:01;6.70;99.90
20366;DHT22;10341;49.894;8.822;2024-03-25T20:38:20;6.60;99.90
20366;DHT22;10341;49.894;8.822;2024-03-25T20:43:39;6.50;99.90
20366;DHT22;10341;49.894;8.822;2024-03-25T20:48:59;6.30;99.90
20366;DHT22;10341;49.894;8.822;2024-03-25T20:54:18;6.20;99.90
20366;DHT22;10341;49.894;8.822;2024-03-25T20:59:38;5.90;99.90
20366;DHT22;10341;49.894;8.822;2024-03-25T21:04:57;5.50;99.90
20366;DHT22;10341;49.894;8.822;2024-03-25T21:10:16;5.20;99.90
20366;DHT22;10341;49.894;8.822;2024-03-25T21:15:36;5.00;99.90
20366;DHT22;10341;49.894;8.822;2024-03-25T21:20:56;4.90;99.90
20366;DHT22;10341;49.894;8.822;2024-03-25T21:26:15;4.70;99.90
20366;DHT22;10341;49.894;8.822;2024-03-25T21:31:34;4.60;99.90
20366;DHT22;10341;49.894;8.822;2024-03-25T21:36:53;4.40;99.90
20366;DHT22;10341;49.894;8.822;2024-03-25T21:42:13;4.30;99.90
20366;DHT22;10341;49.894;8.822;2024-03-25T21:47:32;4.10;99.90
20366;DHT22;10341;49.894;8.822;2024-03-25T21:52:51;4.00;99.90
20366;DHT22;10341;49.894;8.822;2024-03-25T21:58:10;3.90;99.90
20366;DHT22;10341;49.894;8.822;2024-03-25T22:03:29;3.80;99.90
20366;DHT22;10341;49.894;8.822;2024-03-25T22:08:48;3.70;99.90
20366;DHT22;10341;49.894;8.822;2024-03-25T22:14:08;3.60;99.90
20366;DHT22;10341;49.894;8.822;2024-03-25T22:19:27;3.60;99.90
20366;DHT22;10341;49.894;8.822;2024-03-25T22:24:46;3.50;99.90
20366;DHT22;10341;49.894;8.822;2024-03-25T22:30:06;3.50;99.90
20366;DHT22;10341;49.894;8.822;2024-03-25T22:35:25;3.40;99.90
20366;DHT22;10341;49.894;8.822;2024-03-25T22:40:45;3.40;99.90
20366;DHT22;10341;49.894;8.822;2024-03-25T22:46:04;3.30;99.90
20366;DHT22;10341;49.894;8.822;2024-03-25T22:51:24;3.30;99.90
20366;DHT22;10341;49.894;8.822;2024-03-25T22:56:43;3.20;99.90
20366;DHT22;10341;49.894;8.822;2024-03-25T23:02:02;3.10;99.90
20366;DHT22;10341;49.894;8.822;2024-03-25T23:07:22;3.00;99.90
20366;DHT22;10341;49.894;8.822;2024-03-25T23:12:42;2.90;99.90
20366;DHT22;10341;49.894;8.822;2024-03-25T23:18:01;2.80;99.90
20366;DHT22;10341;49.894;8.822;2024-03-25T23:23:21;2.70;99.90
20366;DHT22;10341;49.894;8.822;2024-03-25T23:28:40;2.60;99.90
20366;DHT22;10341;49.894;8.822;2024-03-25T23:34:00;2.50;99.90
20366;DHT22;10341;49.894;8.822;2024-03-25T23:39:19;2.40;99.90
20366;DHT22;10341;49.894;8.822;2024-03-25T23:44:38;2.30;99.90
20366;DHT22;10341;49.894;8.822;2024-03-25T23:49:58;2.20;99.90
20366;DHT22;10341;49.894;8.822;2024-03-25T23:55:17;2.10;99.90
